Time;durP1;ratioP1;P1;durP2;ratioP2;P2;SDS_P1;SDS_P2;PMS_P1;PMS_P2;Temp;Humidity;BMP_temperature;BMP_pressure;BME280_temperature;BME280_humidity;BME280_pressure;Samples;Min_cycle;Max_cycle;Signal;HPM_P1;HPM_P2
2021/07/17 00:03:30;;;;;;;4.93;3.13;;;;;;;;;;6290308;28;20089;-68
2021/07/17 00:09:52;;;;;;;3.22;2.92;;;;;;;;;;6301762;28;20044;-66
2021/07/17 00:12:56;;;;;;;4.05;2.80;;;;;;;;;;6307572;28;20043;-69
2021/07/17 00:16:04;;;;;;;8.63;3.75;;;;;;;;;;6305840;28;20048;-66
2021/07/17 00:27:06;;;;;;;7.07;3.25;;;;;;;;;;6277151;28;20774;-68
2021/07/17 00:30:59;;;;;;;4.57;3.00;;;;;;;;;;6296242;28;20040;-69
2021/07/17 00:38:02;;;;;;;5.00;3.05;;;;;;;;;;6261168;27;1427953;-71
2021/07/17 00:41:04;;;;;;;4.07;3.10;;;;;;;;;;6285751;28;20073;-68
2021/07/17 00:44:08;;;;;;;4.20;2.70;;;;;;;;;;6277184;28;20041;-67
2021/07/17 00:47:18;;;;;;;4.30;2.72;;;;;;;;;;6284766;28;20052;-68
2021/07/17 00:50:43;;;;;;;;;;;;;;;;;;;;;
2021/07/17 00:53:47;;;;;;;4.90;3.17;;;;;;;;;;6215099;28;20144;-68
2021/07/17 01:00:50;;;;;;;;;;;;;;;;;;6191306;28;20057;-72
2021/07/17 01:04:35;;;;;;;3.65;2.30;;;;;;;;;;6190000;28;19988;-68
2021/07/17 01:07:38;;;;;;;6.63;2.65;;;;;;;;;;6160798;28;20062;-68
2021/07/17 01:14:09;;;;;;;3.83;2.13;;;;;;;;;;6258283;28;20489;-67
2021/07/17 01:29:05;;;;;;;5.18;1.95;;;;;;;;;;6213030;28;20053;-69
2021/07/17 01:32:20;;;;;;;3.83;2.00;;;;;;;;;;6259219;28;20056;-68
2021/07/17 01:38:46;;;;;;;3.58;2.17;;;;;;;;;;6231208;28;20049;-67
2021/07/17 01:49:45;;;;;;;4.22;2.28;;;;;;;;;;6263498;28;20037;-70
2021/07/17 01:56:43;;;;;;;3.38;2.25;;;;;;;;;;6219101;28;20047;-69
2021/07/17 01:59:45;;;;;;;2.78;2.10;;;;;;;;;;6235234;28;20103;-68
2021/07/17 02:03:25;;;;;;;9.13;2.60;;;;;;;;;;6237026;28;20063;-67
2021/07/17 02:06:31;;;;;;;3.42;2.58;;;;;;;;;;6239897;28;20127;-71
2021/07/17 02:09:36;;;;;;;4.22;2.22;;;;;;;;;;6241095;28;20045;-69
2021/07/17 02:16:20;;;;;;;6.47;2.67;;;;;;;;;;6226068;28;20041;-67
2021/07/17 02:28:11;;;;;;;5.18;2.40;;;;;;;;;;6160800;28;20046;-66
2021/07/17 02:31:36;;;;;;;3.47;2.53;;;;;;;;;;6165842;28;20430;-66
2021/07/17 02:34:38;;;;;;;5.63;3.15;;;;;;;;;;6143004;28;20124;-66
2021/07/17 02:38:09;;;;;;;3.58;2.70;;;;;;;;;;6175267;28;20098;-67
2021/07/17 02:41:29;;;;;;;4.68;2.90;;;;;;;;;;6174214;28;20189;-70
2021/07/17 02:44:31;;;;;;;6.10;3.05;;;;;;;;;;6221981;28;20512;-67
2021/07/17 02:47:45;;;;;;;3.53;2.70;;;;;;;;;;6231334;28;20054;-67
2021/07/17 02:50:47;;;;;;;;;;;;;;;;;;6224085;28;20041;-67
2021/07/17 02:53:59;;;;;;;3.67;2.75;;;;;;;;;;6226678;28;19925;-69
2021/07/17 03:08:38;;;;;;;5.57;2.90;;;;;;;;;;6227007;28;20556;-66
2021/07/17 03:11:40;;;;;;;5.47;2.70;;;;;;;;;;6230531;28;20056;-67
2021/07/17 03:15:07;;;;;;;4.35;2.75;;;;;;;;;;6215613;28;20543;-67
2021/07/17 03:18:33;;;;;;;5.63;2.80;;;;;;;;;;6204022;28;20048;-66
2021/07/17 03:21:55;;;;;;;4.03;2.60;;;;;;;;;;6153184;28;20874;-66
2021/07/17 03:25:03;;;;;;;3.67;2.63;;;;;;;;;;6153420;28;20502;-67
2021/07/17 03:28:38;;;;;;;3.55;2.50;;;;;;;;;;6148381;28;20122;-65
2021/07/17 03:31:52;;;;;;;4.47;2.85;;;;;;;;;;6154032;28;20058;-67
2021/07/17 03:35:07;;;;;;;4.80;2.67;;;;;;;;;;6150248;28;20038;-67
2021/07/17 03:50:01;;;;;;;;;;;;;;;;;;;;;
2021/07/17 03:53:09;;;;;;;5.53;3.05;;;;;;;;;;6096134;28;20760;-68
2021/07/17 03:56:20;;;;;;;3.65;2.67;;;;;;;;;;6157449;28;20065;-67
2021/07/17 03:59:23;;;;;;;4.82;2.80;;;;;;;;;;6220409;28;20057;-67
2021/07/17 04:02:39;;;;;;;;;;;;;;;;;;;;;
2021/07/17 04:06:03;;;;;;;4.13;2.60;;;;;;;;;;6207652;28;20686;-67
2021/07/17 04:09:06;;;;;;;8.15;2.70;;;;;;;;;;6234396;28;20496;-70
2021/07/17 04:12:09;;;;;;;3.53;2.25;;;;;;;;;;6232195;28;20136;-67
2021/07/17 04:15:12;;;;;;;3.75;2.65;;;;;;;;;;6235726;28;20053;-71
2021/07/17 04:25:18;;;;;;;5.50;3.40;;;;;;;;;;6163629;28;20105;-66
2021/07/17 04:29:08;;;;;;;3.50;2.88;;;;;;;;;;6151967;28;20214;-67
2021/07/17 04:32:14;;;;;;;4.35;2.75;;;;;;;;;;6211430;28;20051;-66
2021/07/17 04:35:16;;;;;;;5.68;2.92;;;;;;;;;;6209869;28;20064;-69
2021/07/17 04:38:19;;;;;;;4.38;3.00;;;;;;;;;;6229133;28;20058;-68
2021/07/17 04:49:17;;;;;;;5.13;2.55;;;;;;;;;;6017304;29;20620;-67
2021/07/17 04:53:15;;;;;;;6.07;2.78;;;;;;;;;;6047505;28;20050;-67
2021/07/17 04:59:49;;;;;;;4.53;2.58;;;;;;;;;;6141222;28;20441;-67
2021/07/17 05:06:20;;;;;;;3.65;2.50;;;;;;;;;;6118471;28;20186;-67
2021/07/17 05:09:21;;;;;;;3.85;2.40;;;;;;;;;;6136214;28;20055;-67
2021/07/17 05:12:23;;;;;;;4.32;2.63;;;;;;;;;;6126312;28;20047;-66
2021/07/17 05:22:11;;;;;;;4.72;2.60;;;;;;;;;;6201181;28;20045;-67
2021/07/17 05:25:41;;;;;;;3.78;2.80;;;;;;;;;;6237627;28;20045;-69
2021/07/17 05:28:43;;;;;;;4.25;2.80;;;;;;;;;;6255287;28;20044;-67
2021/07/17 05:32:04;;;;;;;5.03;2.80;;;;;;;;;;6252328;28;20047;-67
2021/07/17 05:35:19;;;;;;;4.60;2.70;;;;;;;;;;6248066;28;20084;-69
2021/07/17 05:42:07;;;;;;;3.15;2.83;;;;;;;;;;6220762;28;20562;-67
2021/07/17 05:45:10;;;;;;;4.55;3.15;;;;;;;;;;6248907;28;20091;-72
2021/07/17 05:48:28;;;;;;;7.07;3.83;;;;;;;;;;6246575;28;20076;-67
2021/07/17 05:51:31;;;;;;;8.88;3.67;;;;;;;;;;6236729;28;20053;-68
2021/07/17 05:55:09;;;;;;;6.63;2.90;;;;;;;;;;6264120;28;20057;-70
2021/07/17 05:58:51;;;;;;;3.55;2.65;;;;;;;;;;6235216;28;20053;-67
2021/07/17 06:02:29;;;;;;;;;;;;;;;;;;;;;
2021/07/17 06:05:50;;;;;;;;;;;;;;;;;;;;;
2021/07/17 06:09:06;;;;;;;5.13;3.30;;;;;;;;;;6234656;28;20157;-69
2021/07/17 06:12:18;;;;;;;6.68;3.20;;;;;;;;;;6242571;28;20049;-67
2021/07/17 06:19:06;;;;;;;4.63;3.17;;;;;;;;;;6156631;28;20043;-67
2021/07/17 06:22:08;;;;;;;5.85;3.00;;;;;;;;;;6167908;28;20204;-67
2021/07/17 06:33:00;;;;;;;5.50;3.00;;;;;;;;;;6138574;28;20040;-68
2021/07/17 06:36:09;;;;;;;7.13;2.90;;;;;;;;;;6074163;28;20050;-68
2021/07/17 06:42:45;;;;;;;4.85;3.00;;;;;;;;;;6212108;28;20136;-67
2021/07/17 06:45:52;;;;;;;5.97;2.85;;;;;;;;;;6237888;28;20040;-70
2021/07/17 06:48:54;;;;;;;5.55;2.60;;;;;;;;;;6250834;28;20052;-67
2021/07/17 06:52:09;;;;;;;4.30;2.85;;;;;;;;;;6232079;28;20053;-67
2021/07/17 06:55:33;;;;;;;;;;;;;;;;;;;;;
2021/07/17 06:58:50;;;;;;;3.92;2.70;;;;;;;;;;6212068;28;20138;-70
2021/07/17 07:05:14;;;;;;;3.92;2.70;;;;;;;;;;6211883;28;20489;-71
2021/07/17 07:08:49;;;;;;;7.15;2.55;;;;;;;;;;6233235;28;20497;-69
2021/07/17 07:11:52;;;;;;;7.18;2.50;;;;;;;;;;6229364;28;20068;-69
2021/07/17 07:14:55;;;;;;;5.47;3.13;;;;;;;;;;6235046;28;20057;-68
2021/07/17 07:17:57;;;;;;;3.83;2.53;;;;;;;;;;6226076;28;20108;-71
2021/07/17 07:20:59;;;;;;;3.58;2.22;;;;;;;;;;6207726;28;20053;-67
2021/07/17 07:24:01;;;;;;;5.60;1.83;;;;;;;;;;6260603;28;20041;-68
2021/07/17 07:27:06;;;;;;;3.15;1.88;;;;;;;;;;6257601;28;20060;-71
2021/07/17 07:30:27;;;;;;;4.82;1.67;;;;;;;;;;6243759;28;20496;-72
2021/07/17 07:33:28;;;;;;;3.80;1.48;;;;;;;;;;6225881;28;20045;-70
2021/07/17 07:36:30;;;;;;;3.70;1.65;;;;;;;;;;6227132;28;20057;-67
2021/07/17 07:39:32;;;;;;;4.75;1.67;;;;;;;;;;6236285;28;20073;-69
2021/07/17 07:43:11;;;;;;;2.80;1.25;;;;;;;;;;6227336;28;20055;-71
2021/07/17 07:46:23;;;;;;;5.15;1.40;;;;;;;;;;6249682;28;20061;-67
2021/07/17 07:49:25;;;;;;;2.97;1.50;;;;;;;;;;6257618;28;20111;-70
2021/07/17 07:52:27;;;;;;;3.00;1.33;;;;;;;;;;6249070;28;20159;-68
2021/07/17 07:55:29;;;;;;;3.35;1.60;;;;;;;;;;6254871;28;20045;-71
2021/07/17 07:58:32;;;;;;;2.92;1.35;;;;;;;;;;6255504;28;20060;-69
2021/07/17 08:09:45;;;;;;;4.32;1.67;;;;;;;;;;6253195;28;20041;-70
2021/07/17 08:12:53;;;;;;;2.58;1.08;;;;;;;;;;6255722;28;20048;-73
2021/07/17 08:15:58;;;;;;;2.38;1.40;;;;;;;;;;6253123;28;20091;-65
2021/07/17 08:18:59;;;;;;;2.20;1.20;;;;;;;;;;6256967;28;20045;-70
2021/07/17 08:22:01;;;;;;;2.13;1.10;;;;;;;;;;6255291;28;20056;-68
2021/07/17 08:25:06;;;;;;;3.13;1.17;;;;;;;;;;6241854;28;20043;-68
2021/07/17 08:28:08;;;;;;;2.13;1.25;;;;;;;;;;6236572;28;20049;-71
2021/07/17 08:31:10;;;;;;;2.55;1.20;;;;;;;;;;6222912;28;20061;-68
2021/07/17 08:34:12;;;;;;;4.70;1.40;;;;;;;;;;6232254;28;20127;-68
2021/07/17 08:37:23;;;;;;;2.05;1.08;;;;;;;;;;6240327;28;20570;-69
2021/07/17 08:40:27;;;;;;;4.82;1.40;;;;;;;;;;6232176;28;20045;-69
2021/07/17 08:43:29;;;;;;;2.33;1.20;;;;;;;;;;6234320;28;20065;-67
2021/07/17 08:46:31;;;;;;;4.55;2.03;;;;;;;;;;6224988;28;20984;-71
2021/07/17 08:49:33;;;;;;;4.40;1.30;;;;;;;;;;6239110;28;20507;-67
2021/07/17 08:52:38;;;;;;;2.85;1.40;;;;;;;;;;6250759;28;20830;-66
2021/07/17 08:55:43;;;;;;;2.50;1.40;;;;;;;;;;6244059;28;20147;-68
2021/07/17 08:59:15;;;;;;;;;;;;;;;;;;;;;
2021/07/17 09:02:17;;;;;;;3.30;2.00;;;;;;;;;;6245036;28;20116;-68
2021/07/17 09:08:37;;;;;;;3.28;1.80;;;;;;;;;;6212525;28;20040;-67
2021/07/17 09:11:41;;;;;;;2.80;1.50;;;;;;;;;;6259208;28;20045;-67
2021/07/17 09:14:46;;;;;;;5.68;1.92;;;;;;;;;;6263543;28;20060;-67
2021/07/17 09:17:54;;;;;;;2.80;1.60;;;;;;;;;;6252151;28;20373;-68
2021/07/17 09:20:58;;;;;;;2.53;1.80;;;;;;;;;;6233054;28;20045;-67
2021/07/17 09:24:01;;;;;;;5.90;2.00;;;;;;;;;;6239611;28;20056;-68
2021/07/17 09:27:05;;;;;;;3.22;1.98;;;;;;;;;;6234113;28;20056;-67
2021/07/17 09:30:31;;;;;;;4.18;1.90;;;;;;;;;;6253199;28;20140;-70
2021/07/17 09:33:34;;;;;;;2.35;2.13;;;;;;;;;;6243290;28;20049;-67
2021/07/17 09:36:50;;;;;;;3.90;1.88;;;;;;;;;;6227281;28;20050;-70
2021/07/17 09:39:56;;;;;;;3.03;1.60;;;;;;;;;;6250769;28;20044;-67
2021/07/17 09:43:03;;;;;;;4.90;2.05;;;;;;;;;;6253829;28;20052;-67
2021/07/17 09:49:33;;;;;;;3.28;2.33;;;;;;;;;;6227126;28;20041;-69
2021/07/17 09:52:47;;;;;;;4.13;2.03;;;;;;;;;;6243630;28;20050;-69
2021/07/17 09:56:40;;;;;;;4.00;1.70;;;;;;;;;;6243959;28;20049;-67
2021/07/17 10:00:01;;;;;;;3.13;1.80;;;;;;;;;;6237000;28;20103;-68
2021/07/17 10:03:13;;;;;;;2.92;1.90;;;;;;;;;;6251000;28;20588;-68
2021/07/17 10:06:36;;;;;;;5.88;1.90;;;;;;;;;;6251972;28;20056;-68
2021/07/17 10:09:50;;;;;;;;;;;;;;;;;;;;;
2021/07/17 10:13:07;;;;;;;3.45;1.55;;;;;;;;;;6223120;28;20045;-69
2021/07/17 10:16:21;;;;;;;3.75;1.52;;;;;;;;;;6249787;28;20040;-67
2021/07/17 10:19:24;;;;;;;3.60;1.45;;;;;;;;;;6235554;28;20052;-68
2021/07/17 10:22:27;;;;;;;3.53;1.38;;;;;;;;;;6239973;28;20053;-71
2021/07/17 10:29:40;;;;;;;3.13;1.40;;;;;;;;;;6236683;28;20437;-67
2021/07/17 10:32:43;;;;;;;4.07;1.30;;;;;;;;;;6245554;28;20057;-68
2021/07/17 10:35:50;;;;;;;3.75;1.20;;;;;;;;;;6250779;28;20045;-67
2021/07/17 10:38:58;;;;;;;2.83;1.58;;;;;;;;;;6234297;28;20049;-67
2021/07/17 10:42:14;;;;;;;2.35;1.10;;;;;;;;;;6216554;28;20050;-67
2021/07/17 10:45:56;;;;;;;2.50;1.50;;;;;;;;;;6191090;28;20141;-69
2021/07/17 10:49:15;;;;;;;2.53;1.20;;;;;;;;;;6159979;28;20047;-67
2021/07/17 10:52:21;;;;;;;2.65;1.83;;;;;;;;;;6121008;28;20043;-66
2021/07/17 10:55:28;;;;;;;2.42;1.27;;;;;;;;;;6173000;28;20189;-66
2021/07/17 10:59:11;;;;;;;2.75;1.45;;;;;;;;;;6177008;28;20129;-67
2021/07/17 11:02:36;;;;;;;3.25;1.42;;;;;;;;;;6177185;28;20053;-67
2021/07/17 11:05:40;;;;;;;3.38;1.50;;;;;;;;;;6180795;28;20046;-69
2021/07/17 11:08:42;;;;;;;2.35;1.45;;;;;;;;;;6231970;28;20046;-67
2021/07/17 11:11:44;;;;;;;3.40;1.30;;;;;;;;;;6231879;28;20096;-67
2021/07/17 11:14:46;;;;;;;3.78;1.40;;;;;;;;;;6237533;28;20838;-68
2021/07/17 11:17:51;;;;;;;;;;;;;;;;;;6239664;28;20489;-65
2021/07/17 11:20:59;;;;;;;1.85;1.50;;;;;;;;;;6241691;28;19930;-66
2021/07/17 11:24:09;;;;;;;2.78;1.67;;;;;;;;;;6249087;28;20485;-66
2021/07/17 11:27:12;;;;;;;3.25;1.50;;;;;;;;;;6237555;28;20041;-68
2021/07/17 11:30:15;;;;;;;1.45;1.27;;;;;;;;;;6242220;28;20045;-67
2021/07/17 11:33:17;;;;;;;5.65;1.42;;;;;;;;;;6231485;28;20048;-69
2021/07/17 11:36:26;;;;;;;2.75;1.35;;;;;;;;;;6229908;28;20495;-66
2021/07/17 11:39:30;;;;;;;2.00;1.30;;;;;;;;;;6251420;28;20570;-65
2021/07/17 11:42:37;;;;;;;2.15;1.33;;;;;;;;;;6249391;28;20136;-66
2021/07/17 11:45:40;;;;;;;1.88;1.33;;;;;;;;;;6243172;28;20472;-67
2021/07/17 11:48:42;;;;;;;2.60;1.27;;;;;;;;;;6234689;28;20910;-65
2021/07/17 11:51:50;;;;;;;4.00;1.40;;;;;;;;;;6229242;28;20508;-68
2021/07/17 11:54:55;;;;;;;2.67;1.40;;;;;;;;;;6250678;28;20516;-68
2021/07/17 11:57:57;;;;;;;4.85;1.40;;;;;;;;;;6239911;28;20054;-70
2021/07/17 12:01:01;;;;;;;2.63;1.55;;;;;;;;;;6223862;28;20053;-69
2021/07/17 12:04:03;;;;;;;3.72;1.23;;;;;;;;;;6228056;28;20045;-67
2021/07/17 12:07:08;;;;;;;;;;;;;;;;;;6226201;28;20514;-66
2021/07/17 12:10:12;;;;;;;2.33;1.30;;;;;;;;;;6250093;28;19959;-69
2021/07/17 12:13:14;;;;;;;3.00;1.40;;;;;;;;;;6251598;28;20726;-66
2021/07/17 12:16:34;;;;;;;1.90;1.50;;;;;;;;;;6228004;28;20725;-67
2021/07/17 12:19:36;;;;;;;2.10;1.20;;;;;;;;;;6258933;28;20061;-66
2021/07/17 12:22:46;;;;;;;2.78;1.02;;;;;;;;;;6245208;28;20068;-66
2021/07/17 12:25:51;;;;;;;2.20;1.30;;;;;;;;;;6244410;28;20152;-66
2021/07/17 12:28:56;;;;;;;2.95;1.45;;;;;;;;;;6256284;28;20400;-70
2021/07/17 12:32:05;;;;;;;1.80;1.33;;;;;;;;;;6244251;28;20049;-66
2021/07/17 12:41:55;;;;;;;1.38;1.27;;;;;;;;;;6078014;29;20056;-69
2021/07/17 12:44:57;;;;;;;2.83;1.20;;;;;;;;;;6096893;29;20182;-68
2021/07/17 12:47:59;;;;;;;2.13;1.30;;;;;;;;;;6078811;29;20063;-67
2021/07/17 12:51:22;;;;;;;2.10;1.67;;;;;;;;;;6090046;29;20132;-70
2021/07/17 12:54:36;;;;;;;3.17;1.38;;;;;;;;;;6097364;29;20389;-68
2021/07/17 12:57:40;;;;;;;2.85;1.60;;;;;;;;;;6091266;29;20067;-67
2021/07/17 13:00:45;;;;;;;2.88;1.30;;;;;;;;;;6090404;29;20051;-71
2021/07/17 13:03:47;;;;;;;1.77;1.23;;;;;;;;;;6089715;29;20063;-67
2021/07/17 13:07:00;;;;;;;2.92;1.17;;;;;;;;;;6090556;29;20045;-68
2021/07/17 13:10:02;;;;;;;2.40;1.20;;;;;;;;;;6103060;29;20096;-67
2021/07/17 13:13:07;;;;;;;2.78;1.25;;;;;;;;;;6096231;29;20052;-68
2021/07/17 13:16:09;;;;;;;1.60;1.00;;;;;;;;;;6090222;29;20175;-65
2021/07/17 13:19:11;;;;;;;3.67;1.48;;;;;;;;;;6094274;29;20165;-70
2021/07/17 13:22:38;;;;;;;2.65;1.50;;;;;;;;;;6085109;29;20052;-69
2021/07/17 13:25:49;;;;;;;1.77;1.10;;;;;;;;;;6073479;29;20052;-71
2021/07/17 13:28:54;;;;;;;3.38;1.10;;;;;;;;;;6096755;29;20135;-66
2021/07/17 13:31:58;;;;;;;2.67;0.90;;;;;;;;;;6084286;29;20148;-66
2021/07/17 13:35:25;;;;;;;2.35;1.00;;;;;;;;;;6088890;29;20488;-69
2021/07/17 13:38:35;;;;;;;2.25;1.10;;;;;;;;;;6098627;29;20052;-67
2021/07/17 13:41:39;;;;;;;2.15;1.10;;;;;;;;;;6087566;29;20052;-67
2021/07/17 13:44:44;;;;;;;1.60;1.00;;;;;;;;;;6105416;29;20048;-67
2021/07/17 13:47:57;;;;;;;3.00;1.10;;;;;;;;;;6092477;29;20166;-68
2021/07/17 13:51:06;;;;;;;1.73;1.10;;;;;;;;;;6090187;29;20047;-67
2021/07/17 13:54:08;;;;;;;2.15;1.08;;;;;;;;;;6103263;29;20116;-71
2021/07/17 13:57:14;;;;;;;1.90;1.02;;;;;;;;;;6092784;29;20062;-70
2021/07/17 14:00:22;;;;;;;2.50;0.98;;;;;;;;;;6090871;29;20064;-72
2021/07/17 14:03:29;;;;;;;1.92;1.00;;;;;;;;;;6072668;29;20071;-70
2021/07/17 14:06:31;;;;;;;3.75;1.55;;;;;;;;;;6085582;29;20117;-68
2021/07/17 14:09:33;;;;;;;1.35;1.10;;;;;;;;;;6094326;29;20056;-70
2021/07/17 14:12:34;;;;;;;2.38;1.05;;;;;;;;;;6089893;29;20079;-69
2021/07/17 14:15:41;;;;;;;3.95;1.52;;;;;;;;;;6095644;29;20629;-71
2021/07/17 14:18:54;;;;;;;1.90;1.15;;;;;;;;;;6093727;29;20052;-69
2021/07/17 14:22:05;;;;;;;1.80;1.10;;;;;;;;;;6090987;29;20052;-69
2021/07/17 14:25:34;;;;;;;2.00;0.90;;;;;;;;;;6099880;29;20048;-70
2021/07/17 14:29:09;;;;;;;1.33;1.10;;;;;;;;;;6093829;29;20952;-68
2021/07/17 14:36:55;;;;;;;1.90;1.10;;;;;;;;;;6067231;29;20053;-67
2021/07/17 14:43:14;;;;;;;2.40;0.90;;;;;;;;;;6076551;29;20120;-72
2021/07/17 14:46:17;;;;;;;2.00;0.88;;;;;;;;;;6083518;29;20726;-67
2021/07/17 14:49:29;;;;;;;;;;;;;;;;;;;;;
2021/07/17 14:53:02;;;;;;;1.60;0.80;;;;;;;;;;6080358;29;20188;-67
2021/07/17 14:59:52;;;;;;;1.73;1.10;;;;;;;;;;6100156;29;20362;-66
2021/07/17 15:02:54;;;;;;;0.80;0.80;;;;;;;;;;6086973;29;20059;-67
2021/07/17 15:05:56;;;;;;;1.10;1.00;;;;;;;;;;6087368;29;20217;-66
2021/07/17 15:08:59;;;;;;;1.97;0.90;;;;;;;;;;6096106;29;20699;-67
2021/07/17 15:15:38;;;;;;;2.28;1.02;;;;;;;;;;6045487;29;20044;-67
2021/07/17 15:18:40;;;;;;;1.60;0.88;;;;;;;;;;6091265;29;20071;-67
2021/07/17 15:21:42;;;;;;;2.10;0.88;;;;;;;;;;6089701;29;20055;-68
2021/07/17 15:24:52;;;;;;;0.98;0.77;;;;;;;;;;6093945;29;20071;-67
2021/07/17 15:27:53;;;;;;;0.90;0.80;;;;;;;;;;6093640;29;20463;-67
2021/07/17 15:30:55;;;;;;;2.47;1.13;;;;;;;;;;6088770;29;20548;-67
2021/07/17 15:33:57;;;;;;;1.07;0.87;;;;;;;;;;6092913;29;20479;-66
2021/07/17 15:36:59;;;;;;;2.63;1.10;;;;;;;;;;6090321;29;20044;-66
2021/07/17 15:40:07;;;;;;;4.53;1.20;;;;;;;;;;6097218;29;20475;-67
2021/07/17 15:43:18;;;;;;;2.65;0.95;;;;;;;;;;6091532;29;20637;-66
2021/07/17 15:46:19;;;;;;;1.85;1.00;;;;;;;;;;6089150;29;20131;-67
2021/07/17 15:49:31;;;;;;;;;;;;;;;;;;;;;
2021/07/17 15:52:41;;;;;;;1.05;0.77;;;;;;;;;;6089862;29;20476;-70
2021/07/17 15:56:23;;;;;;;1.13;0.95;;;;;;;;;;6095071;29;20056;-65
2021/07/17 15:59:29;;;;;;;2.20;1.20;;;;;;;;;;6095846;29;20508;-67
2021/07/17 16:02:33;;;;;;;2.20;0.80;;;;;;;;;;6083909;29;20059;-65
2021/07/17 16:05:38;;;;;;;2.88;1.27;;;;;;;;;;6093322;29;20060;-65
2021/07/17 16:08:49;;;;;;;1.50;0.98;;;;;;;;;;6082472;29;20098;-65
2021/07/17 16:12:18;;;;;;;3.08;1.00;;;;;;;;;;6091833;29;20126;-65
2021/07/17 16:15:20;;;;;;;2.65;1.02;;;;;;;;;;6094658;29;20382;-69
2021/07/17 16:18:22;;;;;;;2.00;1.00;;;;;;;;;;6088025;29;20063;-68
2021/07/17 16:21:31;;;;;;;2.20;1.05;;;;;;;;;;6087609;29;20047;-65
2021/07/17 16:24:34;;;;;;;3.15;2.85;;;;;;;;;;6092603;29;20168;-65
2021/07/17 16:27:38;;;;;;;;;;;;;;;;;;6088724;29;20052;-66
2021/07/17 16:30:40;;;;;;;1.30;1.00;;;;;;;;;;6087119;29;19945;-65
2021/07/17 16:33:45;;;;;;;1.13;1.00;;;;;;;;;;6083437;29;20108;-65
2021/07/17 16:36:48;;;;;;;4.80;1.00;;;;;;;;;;6084481;29;20047;-68
2021/07/17 16:39:53;;;;;;;1.48;1.05;;;;;;;;;;6083520;29;20083;-67
2021/07/17 16:42:56;;;;;;;2.17;1.08;;;;;;;;;;6089016;29;20056;-66
2021/07/17 16:46:00;;;;;;;3.75;1.20;;;;;;;;;;6085106;29;20059;-68
2021/07/17 16:49:02;;;;;;;2.83;1.40;;;;;;;;;;6081127;29;20149;-66
2021/07/17 16:52:11;;;;;;;2.83;1.10;;;;;;;;;;6085353;29;20432;-67
2021/07/17 16:55:18;;;;;;;1.60;1.00;;;;;;;;;;6089946;29;20055;-68
2021/07/17 16:58:38;;;;;;;3.35;1.13;;;;;;;;;;6087813;29;20056;-70
2021/07/17 17:02:04;;;;;;;1.98;1.30;;;;;;;;;;6091619;29;20056;-66
2021/07/17 17:12:39;;;;;;;1.58;1.00;;;;;;;;;;6029005;29;20049;-66
2021/07/17 17:15:46;;;;;;;1.40;1.08;;;;;;;;;;6014734;29;20092;-65
2021/07/17 17:18:48;;;;;;;3.40;1.30;;;;;;;;;;6043090;29;20096;-67
2021/07/17 17:25:27;;;;;;;;;;;;;;;;;;;;;
2021/07/17 17:32:27;;;;;;;2.95;0.95;;;;;;;;;;6018787;29;20835;-68
2021/07/17 17:35:37;;;;;;;2.05;1.20;;;;;;;;;;6038568;29;20041;-66
2021/07/17 17:38:39;;;;;;;2.72;0.98;;;;;;;;;;6067095;29;20052;-66
2021/07/17 17:41:44;;;;;;;2.60;0.93;;;;;;;;;;6064508;29;20053;-66
2021/07/17 17:44:47;;;;;;;2.55;1.23;;;;;;;;;;6067775;29;20053;-67
2021/07/17 17:47:51;;;;;;;1.50;1.20;;;;;;;;;;6061885;29;20097;-66
2021/07/17 17:51:06;;;;;;;2.08;1.35;;;;;;;;;;6074003;29;20060;-66
2021/07/17 17:54:16;;;;;;;2.33;1.02;;;;;;;;;;6089462;29;20044;-67
2021/07/17 17:57:28;;;;;;;;;;;;;;;;;;;;;
2021/07/17 18:00:31;;;;;;;1.10;1.00;;;;;;;;;;6034593;29;20135;-72
2021/07/17 18:03:35;;;;;;;1.75;0.90;;;;;;;;;;6081357;29;20518;-66
2021/07/17 18:06:50;;;;;;;;;;;;;;;;;;;;;
2021/07/17 18:14:09;;;;;;;2.08;0.98;;;;;;;;;;6065717;29;20056;-67
2021/07/17 18:17:17;;;;;;;1.33;1.20;;;;;;;;;;6056334;29;20136;-65
2021/07/17 18:21:00;;;;;;;1.67;1.50;;;;;;;;;;6067719;29;20048;-70
2021/07/17 18:24:12;;;;;;;1.70;1.20;;;;;;;;;;6076013;29;20489;-68
2021/07/17 18:34:14;;;;;;;;;;;;;;;;;;6008175;29;20466;-66
2021/07/17 18:37:55;;;;;;;1.67;1.20;;;;;;;;;;6070313;29;19927;-67
2021/07/17 18:41:00;;;;;;;2.85;1.00;;;;;;;;;;6060288;29;20208;-67
2021/07/17 18:44:20;;;;;;;1.70;1.30;;;;;;;;;;6072605;29;20239;-69
2021/07/17 18:47:28;;;;;;;2.45;1.60;;;;;;;;;;6075762;29;20123;-67
2021/07/17 18:50:30;;;;;;;3.70;1.60;;;;;;;;;;6080944;29;20051;-69
2021/07/17 18:53:34;;;;;;;3.80;1.40;;;;;;;;;;6092192;29;20055;-69
2021/07/17 18:56:38;;;;;;;2.55;1.90;;;;;;;;;;6088107;29;20056;-65
2021/07/17 18:59:40;;;;;;;4.40;1.60;;;;;;;;;;6093596;29;20048;-65
2021/07/17 19:02:42;;;;;;;3.75;1.75;;;;;;;;;;6081602;29;20052;-65
2021/07/17 19:05:44;;;;;;;2.97;2.03;;;;;;;;;;6086850;29;20093;-65
2021/07/17 19:08:46;;;;;;;3.08;2.15;;;;;;;;;;6094490;29;20044;-66
2021/07/17 19:11:52;;;;;;;3.00;2.40;;;;;;;;;;6082295;29;20052;-67
2021/07/17 19:14:54;;;;;;;3.30;2.63;;;;;;;;;;6091199;29;20256;-65
2021/07/17 19:17:56;;;;;;;7.45;3.05;;;;;;;;;;6081789;29;20059;-66
2021/07/17 19:20:58;;;;;;;3.80;2.67;;;;;;;;;;6083357;29;21086;-69
2021/07/17 19:24:00;;;;;;;5.93;3.22;;;;;;;;;;6089447;29;20049;-67
2021/07/17 19:27:06;;;;;;;5.43;3.20;;;;;;;;;;6074395;29;20084;-65
2021/07/17 19:30:13;;;;;;;3.88;3.33;;;;;;;;;;6090609;29;20532;-68
2021/07/17 19:33:17;;;;;;;5.32;3.50;;;;;;;;;;6081901;29;20068;-65
2021/07/17 19:39:54;;;;;;;8.13;3.70;;;;;;;;;;6091447;29;20060;-65
2021/07/17 19:42:58;;;;;;;4.15;3.72;;;;;;;;;;6080685;29;20161;-65
2021/07/17 19:46:00;;;;;;;4.40;4.00;;;;;;;;;;6083009;29;20052;-65
2021/07/17 19:49:01;;;;;;;6.68;4.55;;;;;;;;;;6078772;29;20064;-66
2021/07/17 19:52:04;;;;;;;6.97;4.35;;;;;;;;;;6065358;29;22140;-68
2021/07/17 19:55:07;;;;;;;;;;;;;;;;;;6087308;29;20067;-68
2021/07/17 20:02:15;;;;;;;6.45;5.00;;;;;;;;;;6035957;29;20185;-66
2021/07/17 20:05:18;;;;;;;6.30;5.15;;;;;;;;;;6037233;29;20103;-68
2021/07/17 20:08:20;;;;;;;5.82;5.30;;;;;;;;;;6079593;29;20888;-65
2021/07/17 20:11:22;;;;;;;5.97;4.93;;;;;;;;;;6084747;29;20067;-66
2021/07/17 20:14:23;;;;;;;9.75;5.50;;;;;;;;;;6096245;29;20048;-65
2021/07/17 20:17:27;;;;;;;9.73;6.68;;;;;;;;;;6076308;29;20423;-65
2021/07/17 20:20:30;;;;;;;8.45;6.75;;;;;;;;;;6078925;29;20040;-67
2021/07/17 20:23:32;;;;;;;;;;;;;;;;;;6095165;29;20516;-65
2021/07/17 20:26:34;;;;;;;6.72;6.03;;;;;;;;;;6066312;29;20018;-65
2021/07/17 20:29:36;;;;;;;7.32;6.60;;;;;;;;;;6093242;29;20072;-65
2021/07/17 20:32:40;;;;;;;7.32;6.30;;;;;;;;;;6079270;29;20236;-65
2021/07/17 20:35:59;;;;;;;8.90;6.75;;;;;;;;;;6080414;29;20111;-65
2021/07/17 20:39:01;;;;;;;9.55;7.53;;;;;;;;;;6080714;29;20048;-65
2021/07/17 20:42:06;;;;;;;8.83;7.80;;;;;;;;;;6088071;29;20060;-65
2021/07/17 20:48:32;;;;;;;8.32;7.53;;;;;;;;;;6043873;29;20504;-65
2021/07/17 20:51:43;;;;;;;8.00;7.15;;;;;;;;;;6088357;29;20072;-65
2021/07/17 20:54:45;;;;;;;9.55;7.80;;;;;;;;;;6097166;29;20099;-65
2021/07/17 20:57:51;;;;;;;9.70;8.13;;;;;;;;;;6092850;29;20115;-65
2021/07/17 21:00:53;;;;;;;8.18;7.38;;;;;;;;;;6084223;29;20533;-65
2021/07/17 21:03:56;;;;;;;8.10;7.30;;;;;;;;;;6094492;29;20056;-65
2021/07/17 21:06:58;;;;;;;9.43;8.43;;;;;;;;;;6089430;29;20126;-65
2021/07/17 21:10:00;;;;;;;9.05;7.78;;;;;;;;;;6099084;29;20060;-65
2021/07/17 21:13:05;;;;;;;9.38;8.48;;;;;;;;;;6090005;29;20048;-66
2021/07/17 21:16:07;;;;;;;8.88;8.02;;;;;;;;;;6087932;29;20692;-68
2021/07/17 21:19:10;;;;;;;10.95;8.73;;;;;;;;;;6074922;29;20535;-65
2021/07/17 21:22:12;;;;;;;13.13;8.23;;;;;;;;;;6091682;29;20301;-65
2021/07/17 21:25:16;;;;;;;12.98;8.85;;;;;;;;;;6094574;29;20389;-68
2021/07/17 21:28:18;;;;;;;9.80;8.30;;;;;;;;;;6095615;29;20048;-65
2021/07/17 21:31:20;;;;;;;9.98;8.68;;;;;;;;;;6085832;29;20068;-65
2021/07/17 21:34:23;;;;;;;10.02;8.35;;;;;;;;;;6088000;29;21100;-66
2021/07/17 21:37:25;;;;;;;10.68;9.68;;;;;;;;;;6083147;29;20247;-72
2021/07/17 21:40:27;;;;;;;10.45;9.32;;;;;;;;;;6085204;29;20048;-67
2021/07/17 21:43:29;;;;;;;12.95;9.48;;;;;;;;;;6095925;29;20052;-65
2021/07/17 21:46:34;;;;;;;11.48;9.20;;;;;;;;;;6083288;29;20129;-68
2021/07/17 21:49:43;;;;;;;11.20;9.55;;;;;;;;;;6094279;29;20131;-65
2021/07/17 21:52:53;;;;;;;11.15;9.10;;;;;;;;;;6075912;29;20040;-67
2021/07/17 21:55:55;;;;;;;10.55;9.13;;;;;;;;;;6086655;29;20060;-66
2021/07/17 21:58:57;;;;;;;12.27;9.48;;;;;;;;;;6099526;29;20052;-68
2021/07/17 22:01:59;;;;;;;14.25;9.98;;;;;;;;;;6080466;29;20071;-65
2021/07/17 22:05:03;;;;;;;14.02;10.35;;;;;;;;;;6091197;29;20047;-66
2021/07/17 22:08:06;;;;;;;11.32;10.10;;;;;;;;;;6090713;29;20048;-69
2021/07/17 22:11:26;;;;;;;13.85;10.57;;;;;;;;;;6087588;29;20056;-65
2021/07/17 22:14:31;;;;;;;15.48;12.30;;;;;;;;;;6088094;29;20133;-67
2021/07/17 22:17:33;;;;;;;16.65;11.93;;;;;;;;;;6079533;29;20056;-69
2021/07/17 22:20:36;;;;;;;14.98;13.55;;;;;;;;;;6073738;29;20052;-67
2021/07/17 22:23:39;;;;;;;15.50;14.00;;;;;;;;;;6097194;29;20148;-65
2021/07/17 22:26:41;;;;;;;17.83;14.68;;;;;;;;;;6079991;29;20044;-65
2021/07/17 22:29:43;;;;;;;17.90;15.40;;;;;;;;;;6095232;29;20063;-67
2021/07/17 22:32:45;;;;;;;16.38;14.68;;;;;;;;;;6082267;29;20055;-66
2021/07/17 22:35:49;;;;;;;17.15;15.27;;;;;;;;;;6086116;29;20131;-65
2021/07/17 22:38:51;;;;;;;16.40;14.02;;;;;;;;;;6097176;29;20048;-66
2021/07/17 22:41:53;;;;;;;16.75;13.98;;;;;;;;;;6084783;29;20118;-66